sensor_id;sensor_type;location;lat;lon;timestamp;temperature;humidity
2002;DHT22;1003;48.002;7.788;2023-07-20T00:01:52;20.90;99.90
2002;DHT22;1003;48.002;7.788;2023-07-20T00:04:19;20.80;99.90
2002;DHT22;1003;48.002;7.788;2023-07-20T00:06:46;20.80;99.90
2002;DHT22;1003;48.002;7.788;2023-07-20T00:09:13;20.70;99.90
2002;DHT22;1003;48.002;7.788;2023-07-20T00:11:47;20.70;99.90
2002;DHT22;1003;48.002;7.788;2023-07-20T00:14:17;20.70;99.90
2002;DHT22;1003;48.002;7.788;2023-07-20T00:16:45;20.60;99.90
2002;DHT22;1003;48.002;7.788;2023-07-20T00:19:14;20.60;99.90
2002;DHT22;1003;48.002;7.788;2023-07-20T00:21:42;20.50;99.90
2002;DHT22;1003;48.002;7.788;2023-07-20T00:24:09;20.50;99.90
2002;DHT22;1003;48.002;7.788;2023-07-20T00:26:36;20.40;99.90
2002;DHT22;1003;48.002;7.788;2023-07-20T00:29:03;20.40;99.90
2002;DHT22;1003;48.002;7.788;2023-07-20T00:31:31;20.30;99.90
2002;DHT22;1003;48.002;7.788;2023-07-20T00:34:00;20.40;99.90
2002;DHT22;1003;48.002;7.788;2023-07-20T00:36:27;20.40;99.90
2002;DHT22;1003;48.002;7.788;2023-07-20T00:38:54;20.40;99.90
2002;DHT22;1003;48.002;7.788;2023-07-20T00:41:22;20.30;99.90
2002;DHT22;1003;48.002;7.788;2023-07-20T00:43:50;20.30;99.90
2002;DHT22;1003;48.002;7.788;2023-07-20T00:46:17;20.20;99.90
2002;DHT22;1003;48.002;7.788;2023-07-20T00:48:46;20.10;99.90
2002;DHT22;1003;48.002;7.788;2023-07-20T00:51:13;20.10;99.90
2002;DHT22;1003;48.002;7.788;2023-07-20T00:53:40;20.10;99.90
2002;DHT22;1003;48.002;7.788;2023-07-20T00:56:07;20.10;99.90
2002;DHT22;1003;48.002;7.788;2023-07-20T00:58:35;20.10;99.90
2002;DHT22;1003;48.002;7.788;2023-07-20T01:01:02;20.10;99.90
2002;DHT22;1003;48.002;7.788;2023-07-20T01:03:29;20.10;99.90
2002;DHT22;1003;48.002;7.788;2023-07-20T01:06:04;20.10;99.90
2002;DHT22;1003;48.002;7.788;2023-07-20T01:08:45;20.10;99.90
2002;DHT22;1003;48.002;7.788;2023-07-20T01:11:23;20.00;99.90
2002;DHT22;1003;48.002;7.788;2023-07-20T01:13:59;20.00;99.90
2002;DHT22;1003;48.002;7.788;2023-07-20T01:16:27;20.00;99.90
2002;DHT22;1003;48.002;7.788;2023-07-20T01:18:54;20.10;99.90
2002;DHT22;1003;48.002;7.788;2023-07-20T01:21:28;20.10;99.90
2002;DHT22;1003;48.002;7.788;2023-07-20T01:30:57;19.90;99.90
2002;DHT22;1003;48.002;7.788;2023-07-20T01:33:32;19.90;99.90
2002;DHT22;1003;48.002;7.788;2023-07-20T01:36:01;20.00;99.90
2002;DHT22;1003;48.002;7.788;2023-07-20T01:38:29;20.00;99.90
2002;DHT22;1003;48.002;7.788;2023-07-20T01:40:57;19.90;99.90
2002;DHT22;1003;48.002;7.788;2023-07-20T01:43:25;20.00;99.90
2002;DHT22;1003;48.002;7.788;2023-07-20T01:45:52;20.00;99.90
2002;DHT22;1003;48.002;7.788;2023-07-20T01:48:19;19.90;99.90
2002;DHT22;1003;48.002;7.788;2023-07-20T01:50:47;19.80;99.90
2002;DHT22;1003;48.002;7.788;2023-07-20T01:53:14;19.80;99.90
2002;DHT22;1003;48.002;7.788;2023-07-20T01:55:41;19.80;99.90
2002;DHT22;1003;48.002;7.788;2023-07-20T01:58:08;19.70;99.90
2002;DHT22;1003;48.002;7.788;2023-07-20T02:00:37;19.70;99.90
2002;DHT22;1003;48.002;7.788;2023-07-20T02:03:04;19.70;99.90
2002;DHT22;1003;48.002;7.788;2023-07-20T02:05:32;19.70;99.90
2002;DHT22;1003;48.002;7.788;2023-07-20T02:08:00;19.70;99.90
2002;DHT22;1003;48.002;7.788;2023-07-20T02:10:27;19.70;99.90
2002;DHT22;1003;48.002;7.788;2023-07-20T02:12:54;19.60;99.90
2002;DHT22;1003;48.002;7.788;2023-07-20T02:15:22;19.60;99.90
2002;DHT22;1003;48.002;7.788;2023-07-20T02:17:49;19.50;99.90
2002;DHT22;1003;48.002;7.788;2023-07-20T02:20:16;19.40;99.90
2002;DHT22;1003;48.002;7.788;2023-07-20T02:22:43;19.40;99.90
2002;DHT22;1003;48.002;7.788;2023-07-20T02:25:11;19.30;99.90
2002;DHT22;1003;48.002;7.788;2023-07-20T02:27:38;19.20;99.90
2002;DHT22;1003;48.002;7.788;2023-07-20T02:30:07;19.00;99.90
2002;DHT22;1003;48.002;7.788;2023-07-20T02:32:36;19.00;99.90
2002;DHT22;1003;48.002;7.788;2023-07-20T02:35:03;19.00;99.90
2002;DHT22;1003;48.002;7.788;2023-07-20T02:37:31;19.00;99.90
2002;DHT22;1003;48.002;7.788;2023-07-20T02:39:59;19.00;99.90
2002;DHT22;1003;48.002;7.788;2023-07-20T02:42:28;18.90;99.90
2002;DHT22;1003;48.002;7.788;2023-07-20T02:44:55;18.90;99.90
2002;DHT22;1003;48.002;7.788;2023-07-20T02:47:22;18.90;99.90
2002;DHT22;1003;48.002;7.788;2023-07-20T02:49:49;18.80;99.90
2002;DHT22;1003;48.002;7.788;2023-07-20T02:52:16;18.80;99.90
2002;DHT22;1003;48.002;7.788;2023-07-20T02:54:43;18.80;99.90
2002;DHT22;1003;48.002;7.788;2023-07-20T02:57:11;18.70;99.90
2002;DHT22;1003;48.002;7.788;2023-07-20T02:59:39;18.70;99.90
2002;DHT22;1003;48.002;7.788;2023-07-20T03:02:06;18.60;99.90
2002;DHT22;1003;48.002;7.788;2023-07-20T03:04:35;18.60;99.90
2002;DHT22;1003;48.002;7.788;2023-07-20T03:07:03;18.60;99.90
2002;DHT22;1003;48.002;7.788;2023-07-20T03:09:31;18.60;99.90
2002;DHT22;1003;48.002;7.788;2023-07-20T03:11:58;18.60;99.90
2002;DHT22;1003;48.002;7.788;2023-07-20T03:14:25;18.50;99.90
2002;DHT22;1003;48.002;7.788;2023-07-20T03:16:53;18.50;99.90
2002;DHT22;1003;48.002;7.788;2023-07-20T03:19:20;18.50;99.90
2002;DHT22;1003;48.002;7.788;2023-07-20T03:21:47;18.40;99.90
2002;DHT22;1003;48.002;7.788;2023-07-20T03:24:15;18.40;99.90
2002;DHT22;1003;48.002;7.788;2023-07-20T03:26:42;18.40;99.90
2002;DHT22;1003;48.002;7.788;2023-07-20T03:29:09;18.50;99.90
2002;DHT22;1003;48.002;7.788;2023-07-20T03:31:36;18.50;99.90
2002;DHT22;1003;48.002;7.788;2023-07-20T03:34:05;18.50;99.90
2002;DHT22;1003;48.002;7.788;2023-07-20T03:36:34;18.50;99.90
2002;DHT22;1003;48.002;7.788;2023-07-20T03:39:01;18.50;99.90
2002;DHT22;1003;48.002;7.788;2023-07-20T03:41:28;18.40;99.90
2002;DHT22;1003;48.002;7.788;2023-07-20T03:43:55;18.40;99.90
2002;DHT22;1003;48.002;7.788;2023-07-20T03:46:23;18.30;99.90
2002;DHT22;1003;48.002;7.788;2023-07-20T03:48:50;18.30;99.90
2002;DHT22;1003;48.002;7.788;2023-07-20T03:51:18;18.30;99.90
2002;DHT22;1003;48.002;7.788;2023-07-20T03:53:45;18.20;99.90
2002;DHT22;1003;48.002;7.788;2023-07-20T03:56:12;18.20;99.90
2002;DHT22;1003;48.002;7.788;2023-07-20T03:58:39;18.20;99.90
2002;DHT22;1003;48.002;7.788;2023-07-20T04:01:06;18.10;99.90
2002;DHT22;1003;48.002;7.788;2023-07-20T04:03:33;18.10;99.90
2002;DHT22;1003;48.002;7.788;2023-07-20T04:06:01;18.10;99.90
2002;DHT22;1003;48.002;7.788;2023-07-20T04:08:29;18.00;99.90
2002;DHT22;1003;48.002;7.788;2023-07-20T04:10:56;18.00;99.90
2002;DHT22;1003;48.002;7.788;2023-07-20T04:13:23;17.90;99.90
2002;DHT22;1003;48.002;7.788;2023-07-20T04:15:50;17.80;99.90
2002;DHT22;1003;48.002;7.788;2023-07-20T04:18:17;17.70;99.90
2002;DHT22;1003;48.002;7.788;2023-07-20T04:20:45;17.70;99.90
2002;DHT22;1003;48.002;7.788;2023-07-20T04:23:12;17.60;99.90
2002;DHT22;1003;48.002;7.788;2023-07-20T04:25:41;17.60;99.90
2002;DHT22;1003;48.002;7.788;2023-07-20T04:28:09;17.60;99.90
2002;DHT22;1003;48.002;7.788;2023-07-20T04:30:36;17.60;99.90
2002;DHT22;1003;48.002;7.788;2023-07-20T04:33:03;17.70;99.90
2002;DHT22;1003;48.002;7.788;2023-07-20T04:35:48;17.70;99.90
2002;DHT22;1003;48.002;7.788;2023-07-20T04:38:16;17.70;99.90
2002;DHT22;1003;48.002;7.788;2023-07-20T04:40:46;17.60;99.90
2002;DHT22;1003;48.002;7.788;2023-07-20T04:43:14;17.60;99.90
2002;DHT22;1003;48.002;7.788;2023-07-20T04:45:41;17.60;99.90
2002;DHT22;1003;48.002;7.788;2023-07-20T04:48:10;17.60;99.90
2002;DHT22;1003;48.002;7.788;2023-07-20T04:50:38;17.60;99.90
2002;DHT22;1003;48.002;7.788;2023-07-20T04:53:06;17.60;99.90
2002;DHT22;1003;48.002;7.788;2023-07-20T04:55:33;17.60;99.90
2002;DHT22;1003;48.002;7.788;2023-07-20T04:58:03;17.60;99.90
2002;DHT22;1003;48.002;7.788;2023-07-20T05:00:32;17.70;99.90
2002;DHT22;1003;48.002;7.788;2023-07-20T05:03:00;17.70;99.90
2002;DHT22;1003;48.002;7.788;2023-07-20T05:05:27;17.80;99.90
2002;DHT22;1003;48.002;7.788;2023-07-20T05:07:54;17.80;99.90
2002;DHT22;1003;48.002;7.788;2023-07-20T05:10:23;17.80;99.90
2002;DHT22;1003;48.002;7.788;2023-07-20T05:12:50;17.80;99.90
2002;DHT22;1003;48.002;7.788;2023-07-20T05:15:18;17.90;99.90
2002;DHT22;1003;48.002;7.788;2023-07-20T05:17:45;17.90;99.90
2002;DHT22;1003;48.002;7.788;2023-07-20T05:20:14;18.10;99.90
2002;DHT22;1003;48.002;7.788;2023-07-20T05:22:41;18.10;99.90
2002;DHT22;1003;48.002;7.788;2023-07-20T05:25:10;18.30;99.90
2002;DHT22;1003;48.002;7.788;2023-07-20T05:27:38;18.40;99.90
2002;DHT22;1003;48.002;7.788;2023-07-20T05:30:07;18.50;99.90
2002;DHT22;1003;48.002;7.788;2023-07-20T05:32:36;18.60;99.90
2002;DHT22;1003;48.002;7.788;2023-07-20T05:35:03;18.60;99.90
2002;DHT22;1003;48.002;7.788;2023-07-20T05:37:31;18.40;99.90
2002;DHT22;1003;48.002;7.788;2023-07-20T05:39:58;18.40;99.90
2002;DHT22;1003;48.002;7.788;2023-07-20T05:42:25;18.60;99.90
2002;DHT22;1003;48.002;7.788;2023-07-20T05:44:52;18.70;99.90
2002;DHT22;1003;48.002;7.788;2023-07-20T05:47:20;18.70;99.90
2002;DHT22;1003;48.002;7.788;2023-07-20T05:49:49;18.80;99.90
2002;DHT22;1003;48.002;7.788;2023-07-20T05:52:16;18.90;99.90
2002;DHT22;1003;48.002;7.788;2023-07-20T05:54:43;18.90;99.90
2002;DHT22;1003;48.002;7.788;2023-07-20T05:57:10;19.00;99.90
2002;DHT22;1003;48.002;7.788;2023-07-20T05:59:37;19.10;99.90
2002;DHT22;1003;48.002;7.788;2023-07-20T06:02:06;19.30;99.90
2002;DHT22;1003;48.002;7.788;2023-07-20T06:04:33;19.40;99.90
2002;DHT22;1003;48.002;7.788;2023-07-20T06:07:01;19.40;99.90
2002;DHT22;1003;48.002;7.788;2023-07-20T06:09:29;19.50;99.90
2002;DHT22;1003;48.002;7.788;2023-07-20T06:11:57;19.50;99.90
2002;DHT22;1003;48.002;7.788;2023-07-20T06:14:24;19.60;99.90
2002;DHT22;1003;48.002;7.788;2023-07-20T06:16:51;19.60;99.90
2002;DHT22;1003;48.002;7.788;2023-07-20T06:19:18;19.60;99.90
2002;DHT22;1003;48.002;7.788;2023-07-20T06:21:45;19.80;99.90
2002;DHT22;1003;48.002;7.788;2023-07-20T06:24:13;19.90;99.90
2002;DHT22;1003;48.002;7.788;2023-07-20T06:26:40;20.10;99.90
2002;DHT22;1003;48.002;7.788;2023-07-20T06:29:08;20.20;99.90
2002;DHT22;1003;48.002;7.788;2023-07-20T06:31:36;20.20;99.90
2002;DHT22;1003;48.002;7.788;2023-07-20T06:34:03;20.30;99.90
2002;DHT22;1003;48.002;7.788;2023-07-20T06:36:30;20.50;99.90
2002;DHT22;1003;48.002;7.788;2023-07-20T06:38:57;20.70;99.90
2002;DHT22;1003;48.002;7.788;2023-07-20T06:41:26;20.80;99.90
2002;DHT22;1003;48.002;7.788;2023-07-20T06:43:53;21.00;99.90
2002;DHT22;1003;48.002;7.788;2023-07-20T06:46:24;21.10;99.90
2002;DHT22;1003;48.002;7.788;2023-07-20T06:48:51;21.20;99.90
2002;DHT22;1003;48.002;7.788;2023-07-20T06:51:19;21.20;99.90
2002;DHT22;1003;48.002;7.788;2023-07-20T06:53:46;21.40;99.90
2002;DHT22;1003;48.002;7.788;2023-07-20T06:56:13;21.80;99.90
2002;DHT22;1003;48.002;7.788;2023-07-20T06:58:41;21.90;99.90
2002;DHT22;1003;48.002;7.788;2023-07-20T07:01:08;22.10;99.90
2002;DHT22;1003;48.002;7.788;2023-07-20T07:03:35;22.00;99.90
2002;DHT22;1003;48.002;7.788;2023-07-20T07:06:03;22.00;99.90
2002;DHT22;1003;48.002;7.788;2023-07-20T07:08:30;22.20;99.90
2002;DHT22;1003;48.002;7.788;2023-07-20T07:10:57;22.00;99.90
2002;DHT22;1003;48.002;7.788;2023-07-20T07:13:26;22.00;99.90
2002;DHT22;1003;48.002;7.788;2023-07-20T07:15:54;22.00;99.90
2002;DHT22;1003;48.002;7.788;2023-07-20T07:18:22;22.10;99.90
2002;DHT22;1003;48.002;7.788;2023-07-20T07:20:51;22.10;99.90
2002;DHT22;1003;48.002;7.788;2023-07-20T07:23:18;22.00;99.90
2002;DHT22;1003;48.002;7.788;2023-07-20T07:25:47;22.20;99.90
2002;DHT22;1003;48.002;7.788;2023-07-20T07:28:14;22.70;99.90
2002;DHT22;1003;48.002;7.788;2023-07-20T07:30:41;23.20;99.90
2002;DHT22;1003;48.002;7.788;2023-07-20T07:33:10;23.60;99.90
2002;DHT22;1003;48.002;7.788;2023-07-20T07:35:38;23.70;99.90
2002;DHT22;1003;48.002;7.788;2023-07-20T07:38:05;24.00;99.90
2002;DHT22;1003;48.002;7.788;2023-07-20T07:40:32;24.00;99.90
2002;DHT22;1003;48.002;7.788;2023-07-20T07:42:59;23.70;99.90
2002;DHT22;1003;48.002;7.788;2023-07-20T07:45:26;23.50;99.90
2002;DHT22;1003;48.002;7.788;2023-07-20T07:47:53;23.70;99.90
2002;DHT22;1003;48.002;7.788;2023-07-20T07:50:22;24.30;99.90
2002;DHT22;1003;48.002;7.788;2023-07-20T07:52:49;24.80;99.90
2002;DHT22;1003;48.002;7.788;2023-07-20T10:19:43;24.00;99.90
2002;DHT22;1003;48.002;7.788;2023-07-20T10:22:16;24.40;99.90
2002;DHT22;1003;48.002;7.788;2023-07-20T10:24:47;24.60;99.90
2002;DHT22;1003;48.002;7.788;2023-07-20T10:27:14;24.70;99.90
2002;DHT22;1003;48.002;7.788;2023-07-20T10:29:42;24.60;99.90
2002;DHT22;1003;48.002;7.788;2023-07-20T10:32:09;24.70;99.90
2002;DHT22;1003;48.002;7.788;2023-07-20T10:34:38;24.70;99.90
2002;DHT22;1003;48.002;7.788;2023-07-20T10:37:05;24.60;99.90
2002;DHT22;1003;48.002;7.788;2023-07-20T10:39:33;24.50;99.90
2002;DHT22;1003;48.002;7.788;2023-07-20T10:42:01;24.60;99.90
2002;DHT22;1003;48.002;7.788;2023-07-20T10:44:30;24.80;99.90
2002;DHT22;1003;48.002;7.788;2023-07-20T10:47:01;25.00;99.90
2002;DHT22;1003;48.002;7.788;2023-07-20T10:49:33;25.20;99.90
2002;DHT22;1003;48.002;7.788;2023-07-20T10:52:04;25.10;99.90
2002;DHT22;1003;48.002;7.788;2023-07-20T10:54:34;25.40;99.90
2002;DHT22;1003;48.002;7.788;2023-07-20T10:57:24;25.70;99.90
2002;DHT22;1003;48.002;7.788;2023-07-20T11:00:10;25.80;99.90
2002;DHT22;1003;48.002;7.788;2023-07-20T11:02:48;25.90;99.90
2002;DHT22;1003;48.002;7.788;2023-07-20T11:05:35;26.10;99.90
2002;DHT22;1003;48.002;7.788;2023-07-20T11:08:09;26.50;99.90
2002;DHT22;1003;48.002;7.788;2023-07-20T11:10:38;26.70;99.90
2002;DHT22;1003;48.002;7.788;2023-07-20T11:13:20;26.40;99.90
2002;DHT22;1003;48.002;7.788;2023-07-20T11:16:02;26.20;99.90
2002;DHT22;1003;48.002;7.788;2023-07-20T11:18:33;26.10;99.90
2002;DHT22;1003;48.002;7.788;2023-07-20T11:21:09;26.20;99.90
2002;DHT22;1003;48.002;7.788;2023-07-20T11:23:39;26.30;99.90
2002;DHT22;1003;48.002;7.788;2023-07-20T11:26:06;26.20;99.90
2002;DHT22;1003;48.002;7.788;2023-07-20T11:28:34;26.10;99.90
2002;DHT22;1003;48.002;7.788;2023-07-20T11:31:01;25.90;99.90
2002;DHT22;1003;48.002;7.788;2023-07-20T11:33:28;25.80;99.90
2002;DHT22;1003;48.002;7.788;2023-07-20T11:35:55;25.60;99.90
2002;DHT22;1003;48.002;7.788;2023-07-20T11:38:23;25.70;99.90
2002;DHT22;1003;48.002;7.788;2023-07-20T11:40:52;25.80;99.90
2002;DHT22;1003;48.002;7.788;2023-07-20T11:43:20;25.60;99.90
2002;DHT22;1003;48.002;7.788;2023-07-20T11:45:49;25.40;99.90
2002;DHT22;1003;48.002;7.788;2023-07-20T11:48:17;25.60;99.90
2002;DHT22;1003;48.002;7.788;2023-07-20T11:50:44;25.70;99.90
2002;DHT22;1003;48.002;7.788;2023-07-20T11:53:13;25.80;99.90
2002;DHT22;1003;48.002;7.788;2023-07-20T11:55:41;25.80;99.90
2002;DHT22;1003;48.002;7.788;2023-07-20T11:58:10;25.90;99.90
2002;DHT22;1003;48.002;7.788;2023-07-20T12:00:38;25.70;99.90
2002;DHT22;1003;48.002;7.788;2023-07-20T12:03:06;25.50;99.90
2002;DHT22;1003;48.002;7.788;2023-07-20T12:05:34;25.40;99.90
2002;DHT22;1003;48.002;7.788;2023-07-20T12:08:01;25.60;99.90
2002;DHT22;1003;48.002;7.788;2023-07-20T12:10:28;25.60;99.90
2002;DHT22;1003;48.002;7.788;2023-07-20T12:13:01;25.60;99.90
2002;DHT22;1003;48.002;7.788;2023-07-20T12:15:31;25.50;99.90
2002;DHT22;1003;48.002;7.788;2023-07-20T12:17:59;25.60;99.90
2002;DHT22;1003;48.002;7.788;2023-07-20T12:20:29;25.60;99.90
2002;DHT22;1003;48.002;7.788;2023-07-20T12:22:59;25.60;99.90
2002;DHT22;1003;48.002;7.788;2023-07-20T12:25:34;25.60;99.90
2002;DHT22;1003;48.002;7.788;2023-07-20T12:28:05;25.80;99.90
2002;DHT22;1003;48.002;7.788;2023-07-20T12:30:34;25.70;99.90
2002;DHT22;1003;48.002;7.788;2023-07-20T12:33:02;25.70;99.90
2002;DHT22;1003;48.002;7.788;2023-07-20T12:35:30;26.00;99.90
2002;DHT22;1003;48.002;7.788;2023-07-20T12:37:57;25.70;99.90
2002;DHT22;1003;48.002;7.788;2023-07-20T12:40:24;25.80;99.90
2002;DHT22;1003;48.002;7.788;2023-07-20T12:42:52;25.70;99.90
2002;DHT22;1003;48.002;7.788;2023-07-20T12:45:19;25.60;99.90
2002;DHT22;1003;48.002;7.788;2023-07-20T12:47:48;25.70;99.90
2002;DHT22;1003;48.002;7.788;2023-07-20T12:50:15;25.60;99.90
2002;DHT22;1003;48.002;7.788;2023-07-20T12:52:42;25.80;99.90
2002;DHT22;1003;48.002;7.788;2023-07-20T12:55:09;26.20;99.90
2002;DHT22;1003;48.002;7.788;2023-07-20T12:57:37;26.40;99.90
2002;DHT22;1003;48.002;7.788;2023-07-20T13:00:06;26.20;99.90
2002;DHT22;1003;48.002;7.788;2023-07-20T13:02:35;26.40;99.90
2002;DHT22;1003;48.002;7.788;2023-07-20T13:05:06;26.60;99.90
2002;DHT22;1003;48.002;7.788;2023-07-20T13:07:34;26.70;99.90
2002;DHT22;1003;48.002;7.788;2023-07-20T13:10:03;26.50;99.90
2002;DHT22;1003;48.002;7.788;2023-07-20T13:12:33;26.20;99.90
2002;DHT22;1003;48.002;7.788;2023-07-20T13:15:01;26.00;99.90
2002;DHT22;1003;48.002;7.788;2023-07-20T13:17:31;26.00;99.90
2002;DHT22;1003;48.002;7.788;2023-07-20T13:19:58;26.00;99.90
2002;DHT22;1003;48.002;7.788;2023-07-20T13:22:27;26.10;99.90
2002;DHT22;1003;48.002;7.788;2023-07-20T13:24:54;26.40;99.90
2002;DHT22;1003;48.002;7.788;2023-07-20T13:27:21;26.50;99.90
2002;DHT22;1003;48.002;7.788;2023-07-20T13:29:48;26.60;99.90
2002;DHT22;1003;48.002;7.788;2023-07-20T13:32:16;26.50;99.90
2002;DHT22;1003;48.002;7.788;2023-07-20T13:34:43;26.30;99.90
2002;DHT22;1003;48.002;7.788;2023-07-20T13:37:12;26.30;99.90
2002;DHT22;1003;48.002;7.788;2023-07-20T13:39:40;26.20;99.90
2002;DHT22;1003;48.002;7.788;2023-07-20T13:42:07;26.10;99.90
2002;DHT22;1003;48.002;7.788;2023-07-20T13:44:36;26.10;99.90
2002;DHT22;1003;48.002;7.788;2023-07-20T13:47:04;26.30;99.90
2002;DHT22;1003;48.002;7.788;2023-07-20T13:49:32;26.40;99.90
2002;DHT22;1003;48.002;7.788;2023-07-20T13:51:59;26.50;99.90
2002;DHT22;1003;48.002;7.788;2023-07-20T13:54:26;26.60;99.90
2002;DHT22;1003;48.002;7.788;2023-07-20T13:56:54;26.60;99.90
2002;DHT22;1003;48.002;7.788;2023-07-20T13:59:22;26.70;99.90
2002;DHT22;1003;48.002;7.788;2023-07-20T14:01:49;26.60;99.90
2002;DHT22;1003;48.002;7.788;2023-07-20T14:04:17;26.50;99.90
2002;DHT22;1003;48.002;7.788;2023-07-20T14:06:44;26.10;99.90
2002;DHT22;1003;48.002;7.788;2023-07-20T14:09:13;25.90;99.90
2002;DHT22;1003;48.002;7.788;2023-07-20T14:11:40;26.00;99.90
2002;DHT22;1003;48.002;7.788;2023-07-20T14:14:08;26.00;99.90
2002;DHT22;1003;48.002;7.788;2023-07-20T14:16:35;26.00;99.90
2002;DHT22;1003;48.002;7.788;2023-07-20T14:19:03;25.90;99.90
2002;DHT22;1003;48.002;7.788;2023-07-20T14:21:31;26.10;99.90
2002;DHT22;1003;48.002;7.788;2023-07-20T14:23:58;26.10;99.90
2002;DHT22;1003;48.002;7.788;2023-07-20T14:26:25;26.10;99.90
2002;DHT22;1003;48.002;7.788;2023-07-20T14:28:53;26.30;99.90
2002;DHT22;1003;48.002;7.788;2023-07-20T14:31:21;26.30;99.90
2002;DHT22;1003;48.002;7.788;2023-07-20T14:33:48;26.40;99.90
2002;DHT22;1003;48.002;7.788;2023-07-20T14:36:16;26.60;99.90
2002;DHT22;1003;48.002;7.788;2023-07-20T14:38:43;26.70;99.90
2002;DHT22;1003;48.002;7.788;2023-07-20T14:41:10;26.70;99.90
2002;DHT22;1003;48.002;7.788;2023-07-20T14:43:37;26.90;99.90
2002;DHT22;1003;48.002;7.788;2023-07-20T14:46:05;26.80;99.90
2002;DHT22;1003;48.002;7.788;2023-07-20T14:48:33;26.80;99.90
2002;DHT22;1003;48.002;7.788;2023-07-20T14:51:00;26.70;99.90
2002;DHT22;1003;48.002;7.788;2023-07-20T14:53:28;26.80;99.90
2002;DHT22;1003;48.002;7.788;2023-07-20T14:55:59;26.70;99.90
2002;DHT22;1003;48.002;7.788;2023-07-20T14:58:26;26.70;99.90
2002;DHT22;1003;48.002;7.788;2023-07-20T15:00:53;26.70;99.90
2002;DHT22;1003;48.002;7.788;2023-07-20T15:03:20;26.60;99.90
2002;DHT22;1003;48.002;7.788;2023-07-20T15:05:49;26.70;99.90
2002;DHT22;1003;48.002;7.788;2023-07-20T15:08:17;26.70;99.90
2002;DHT22;1003;48.002;7.788;2023-07-20T15:10:44;26.40;99.90
2002;DHT22;1003;48.002;7.788;2023-07-20T15:13:11;26.20;99.90
2002;DHT22;1003;48.002;7.788;2023-07-20T15:15:38;26.00;99.90
2002;DHT22;1003;48.002;7.788;2023-07-20T15:18:05;25.90;99.90
2002;DHT22;1003;48.002;7.788;2023-07-20T15:20:32;26.00;99.90
2002;DHT22;1003;48.002;7.788;2023-07-20T15:23:01;26.20;99.90
2002;DHT22;1003;48.002;7.788;2023-07-20T15:25:28;26.30;99.90
2002;DHT22;1003;48.002;7.788;2023-07-20T15:27:55;26.20;99.90
2002;DHT22;1003;48.002;7.788;2023-07-20T15:30:22;26.10;99.90
2002;DHT22;1003;48.002;7.788;2023-07-20T15:32:49;26.00;99.90
2002;DHT22;1003;48.002;7.788;2023-07-20T15:35:16;26.00;99.90
2002;DHT22;1003;48.002;7.788;2023-07-20T15:37:43;26.10;99.90
2002;DHT22;1003;48.002;7.788;2023-07-20T15:40:12;26.10;99.90
2002;DHT22;1003;48.002;7.788;2023-07-20T15:42:39;26.30;99.90
2002;DHT22;1003;48.002;7.788;2023-07-20T15:45:08;26.30;99.90
2002;DHT22;1003;48.002;7.788;2023-07-20T15:47:36;26.20;99.90
2002;DHT22;1003;48.002;7.788;2023-07-20T15:50:03;26.30;99.90
2002;DHT22;1003;48.002;7.788;2023-07-20T15:52:50;26.40;99.90
2002;DHT22;1003;48.002;7.788;2023-07-20T15:55:24;26.40;99.90
2002;DHT22;1003;48.002;7.788;2023-07-20T15:57:51;26.50;99.90
2002;DHT22;1003;48.002;7.788;2023-07-20T16:00:19;26.50;99.90
2002;DHT22;1003;48.002;7.788;2023-07-20T16:02:46;26.40;99.90
2002;DHT22;1003;48.002;7.788;2023-07-20T16:05:13;26.20;99.90
2002;DHT22;1003;48.002;7.788;2023-07-20T16:07:40;26.10;99.90
2002;DHT22;1003;48.002;7.788;2023-07-20T16:10:09;26.10;99.90
2002;DHT22;1003;48.002;7.788;2023-07-20T16:12:37;26.30;99.90
2002;DHT22;1003;48.002;7.788;2023-07-20T16:15:05;26.40;99.90
2002;DHT22;1003;48.002;7.788;2023-07-20T16:17:33;26.30;99.90
2002;DHT22;1003;48.002;7.788;2023-07-20T16:20:00;26.20;99.90
2002;DHT22;1003;48.002;7.788;2023-07-20T16:22:29;26.10;99.90
2002;DHT22;1003;48.002;7.788;2023-07-20T16:24:56;26.20;99.90
2002;DHT22;1003;48.002;7.788;2023-07-20T16:27:23;26.20;99.90
2002;DHT22;1003;48.002;7.788;2023-07-20T16:29:51;26.10;99.90
2002;DHT22;1003;48.002;7.788;2023-07-20T16:32:18;26.10;99.90
2002;DHT22;1003;48.002;7.788;2023-07-20T16:34:45;26.00;99.90
2002;DHT22;1003;48.002;7.788;2023-07-20T16:37:12;25.90;99.90
2002;DHT22;1003;48.002;7.788;2023-07-20T16:39:39;25.90;99.90
2002;DHT22;1003;48.002;7.788;2023-07-20T16:42:07;25.80;99.90
2002;DHT22;1003;48.002;7.788;2023-07-20T16:44:34;25.90;99.90
2002;DHT22;1003;48.002;7.788;2023-07-20T16:47:03;25.80;99.90
2002;DHT22;1003;48.002;7.788;2023-07-20T16:49:43;25.90;99.90
2002;DHT22;1003;48.002;7.788;2023-07-20T16:52:10;26.00;99.90
2002;DHT22;1003;48.002;7.788;2023-07-20T16:54:37;25.90;99.90
2002;DHT22;1003;48.002;7.788;2023-07-20T16:57:04;25.90;99.90
2002;DHT22;1003;48.002;7.788;2023-07-20T16:59:32;25.90;99.90
2002;DHT22;1003;48.002;7.788;2023-07-20T17:01:59;26.00;99.90
2002;DHT22;1003;48.002;7.788;2023-07-20T17:04:27;26.10;99.90
2002;DHT22;1003;48.002;7.788;2023-07-20T17:06:54;26.10;99.90
2002;DHT22;1003;48.002;7.788;2023-07-20T17:09:24;26.10;99.90
2002;DHT22;1003;48.002;7.788;2023-07-20T17:11:51;26.00;99.90
2002;DHT22;1003;48.002;7.788;2023-07-20T17:14:18;26.00;99.90
2002;DHT22;1003;48.002;7.788;2023-07-20T17:16:45;26.00;99.90
2002;DHT22;1003;48.002;7.788;2023-07-20T17:19:12;25.90;99.90
2002;DHT22;1003;48.002;7.788;2023-07-20T17:21:40;25.80;99.90
2002;DHT22;1003;48.002;7.788;2023-07-20T17:24:07;25.70;99.90
2002;DHT22;1003;48.002;7.788;2023-07-20T17:26:35;25.70;99.90
2002;DHT22;1003;48.002;7.788;2023-07-20T17:29:03;25.60;99.90
2002;DHT22;1003;48.002;7.788;2023-07-20T17:31:30;25.70;99.90
2002;DHT22;1003;48.002;7.788;2023-07-20T17:33:58;25.80;99.90
2002;DHT22;1003;48.002;7.788;2023-07-20T17:36:26;25.70;99.90
2002;DHT22;1003;48.002;7.788;2023-07-20T17:38:54;25.80;99.90
2002;DHT22;1003;48.002;7.788;2023-07-20T17:41:21;25.70;99.90
2002;DHT22;1003;48.002;7.788;2023-07-20T17:43:48;25.70;99.90
2002;DHT22;1003;48.002;7.788;2023-07-20T17:46:15;25.60;99.90
2002;DHT22;1003;48.002;7.788;2023-07-20T17:48:42;25.40;99.90
2002;DHT22;1003;48.002;7.788;2023-07-20T17:51:10;25.40;99.90
2002;DHT22;1003;48.002;7.788;2023-07-20T17:53:37;25.30;99.90
2002;DHT22;1003;48.002;7.788;2023-07-20T17:56:05;25.20;99.90
2002;DHT22;1003;48.002;7.788;2023-07-20T17:58:32;25.10;99.90
2002;DHT22;1003;48.002;7.788;2023-07-20T18:00:59;25.00;99.90
2002;DHT22;1003;48.002;7.788;2023-07-20T18:03:27;24.90;99.90
2002;DHT22;1003;48.002;7.788;2023-07-20T18:05:54;24.80;99.90
2002;DHT22;1003;48.002;7.788;2023-07-20T18:08:22;24.90;99.90
2002;DHT22;1003;48.002;7.788;2023-07-20T18:10:51;24.80;99.90
2002;DHT22;1003;48.002;7.788;2023-07-20T18:13:19;24.70;99.90
2002;DHT22;1003;48.002;7.788;2023-07-20T18:15:54;24.60;99.90
2002;DHT22;1003;48.002;7.788;2023-07-20T18:18:22;24.60;99.90
2002;DHT22;1003;48.002;7.788;2023-07-20T18:20:49;24.50;99.90
2002;DHT22;1003;48.002;7.788;2023-07-20T18:23:16;24.40;99.90
2002;DHT22;1003;48.002;7.788;2023-07-20T18:25:43;24.40;99.90
2002;DHT22;1003;48.002;7.788;2023-07-20T18:28:11;24.30;99.90
2002;DHT22;1003;48.002;7.788;2023-07-20T18:30:41;24.10;99.90
2002;DHT22;1003;48.002;7.788;2023-07-20T18:33:11;24.00;99.90
2002;DHT22;1003;48.002;7.788;2023-07-20T18:35:38;23.90;99.90
2002;DHT22;1003;48.002;7.788;2023-07-20T18:38:06;23.80;99.90
2002;DHT22;1003;48.002;7.788;2023-07-20T18:40:33;23.70;99.90